sensor_id;sensor_type;location;lat;lon;timestamp;pressure;altitude;pressure_sealevel;temperature;humidity
49044;BME280;34860;48.066;14.124;2024-03-23T00:54:57;96065.53;;;10.79;62.30
49044;BME280;34860;48.066;14.124;2024-03-23T00:57:43;96070.97;;;10.82;62.38
49044;BME280;34860;48.066;14.124;2024-03-23T01:00:31;96072.53;;;10.83;62.35
49044;BME280;34860;48.066;14.124;2024-03-23T01:03:18;96069.25;;;10.85;62.40
49044;BME280;34860;48.066;14.124;2024-03-23T01:06:06;96069.25;;;10.85;62.43
49044;BME280;34860;48.066;14.124;2024-03-23T01:08:53;96059.56;;;10.89;62.26
49044;BME280;34860;48.066;14.124;2024-03-23T01:11:43;96057.13;;;10.92;62.20
49044;BME280;34860;48.066;14.124;2024-03-23T01:14:30;96055.25;;;10.88;62.14
49044;BME280;34860;48.066;14.124;2024-03-23T01:17:20;96046.72;;;10.83;62.19
49044;BME280;34860;48.066;14.124;2024-03-23T01:20:07;96027.41;;;10.79;61.98
49044;BME280;34860;48.066;14.124;2024-03-23T01:22:55;96045.28;;;10.78;62.23
49044;BME280;34860;48.066;14.124;2024-03-23T01:25:42;96044.53;;;10.78;61.94
49044;BME280;34860;48.066;14.124;2024-03-23T01:28:32;96032.31;;;10.75;61.91
49044;BME280;34860;48.066;14.124;2024-03-23T01:31:19;96033.22;;;10.72;62.08
49044;BME280;34860;48.066;14.124;2024-03-23T01:34:07;96037.56;;;10.73;62.07
49044;BME280;34860;48.066;14.124;2024-03-23T01:36:54;96029.34;;;10.69;62.02
49044;BME280;34860;48.066;14.124;2024-03-23T01:39:43;96023.47;;;10.67;62.12
49044;BME280;34860;48.066;14.124;2024-03-23T01:42:30;96024.38;;;10.64;62.21
49044;BME280;34860;48.066;14.124;2024-03-23T01:45:22;96014.28;;;10.58;62.13
49044;BME280;34860;48.066;14.124;2024-03-23T01:48:09;96009.63;;;10.54;62.28
49044;BME280;34860;48.066;14.124;2024-03-23T01:50:59;96005.00;;;10.51;62.30
49044;BME280;34860;48.066;14.124;2024-03-23T01:53:46;95997.88;;;10.50;62.29
49044;BME280;34860;48.066;14.124;2024-03-23T01:56:35;96001.56;;;10.47;62.16
49044;BME280;34860;48.066;14.124;2024-03-23T01:59:23;95989.34;;;10.45;62.17
49044;BME280;34860;48.066;14.124;2024-03-23T02:02:29;95985.94;;;10.41;62.18
49044;BME280;34860;48.066;14.124;2024-03-23T02:05:38;95994.28;;;10.41;62.11
49044;BME280;34860;48.066;14.124;2024-03-23T02:08:55;95980.03;;;10.39;62.13
49044;BME280;34860;48.066;14.124;2024-03-23T02:12:11;95978.06;;;10.39;62.09
49044;BME280;34860;48.066;14.124;2024-03-23T02:15:24;95974.63;;;10.35;62.10
49044;BME280;34860;48.066;14.124;2024-03-23T02:18:44;95965.63;;;10.31;62.13
49044;BME280;34860;48.066;14.124;2024-03-23T02:21:59;95970.09;;;10.28;62.13
49044;BME280;34860;48.066;14.124;2024-03-23T02:25:41;95966.66;;;10.24;62.10
49044;BME280;34860;48.066;14.124;2024-03-23T02:29:46;95965.25;;;10.20;62.00
49044;BME280;34860;48.066;14.124;2024-03-23T02:33:50;95963.38;;;10.16;61.97
49044;BME280;34860;48.066;14.124;2024-03-23T02:37:54;95962.72;;;10.12;61.87
49044;BME280;34860;48.066;14.124;2024-03-23T02:41:44;95955.28;;;10.09;62.09
49044;BME280;34860;48.066;14.124;2024-03-23T02:45:23;95948.63;;;10.07;62.11
49044;BME280;34860;48.066;14.124;2024-03-23T02:48:57;95953.09;;;10.04;62.11
49044;BME280;34860;48.066;14.124;2024-03-23T02:52:36;95944.25;;;9.96;62.04
49044;BME280;34860;48.066;14.124;2024-03-23T02:56:05;95939.72;;;9.90;62.10
49044;BME280;34860;48.066;14.124;2024-03-23T02:58:57;95930.88;;;9.82;62.06
49044;BME280;34860;48.066;14.124;2024-03-23T03:01:51;95926.34;;;9.75;62.18
49044;BME280;34860;48.066;14.124;2024-03-23T03:05:03;95930.47;;;9.71;62.21
49044;BME280;34860;48.066;14.124;2024-03-23T03:08:07;95921.16;;;9.64;62.20
49044;BME280;34860;48.066;14.124;2024-03-23T03:10:55;95926.41;;;9.62;62.13
49044;BME280;34860;48.066;14.124;2024-03-23T03:13:42;95918.66;;;9.57;62.36
49044;BME280;34860;48.066;14.124;2024-03-23T03:16:32;95920.44;;;9.51;62.37
49044;BME280;34860;48.066;14.124;2024-03-23T03:19:23;95917.31;;;9.49;62.47
49044;BME280;34860;48.066;14.124;2024-03-23T03:22:32;95917.78;;;9.48;62.31
49044;BME280;34860;48.066;14.124;2024-03-23T03:25:20;95908.69;;;9.47;62.33
49044;BME280;34860;48.066;14.124;2024-03-23T03:28:08;95909.00;;;9.49;62.33
49044;BME280;34860;48.066;14.124;2024-03-23T03:30:55;95909.34;;;9.51;62.17
49044;BME280;34860;48.066;14.124;2024-03-23T03:33:45;95900.91;;;9.55;62.48
49044;BME280;34860;48.066;14.124;2024-03-23T03:36:33;95910.78;;;9.56;62.20
49044;BME280;34860;48.066;14.124;2024-03-23T03:39:20;95906.44;;;9.55;62.48
49044;BME280;34860;48.066;14.124;2024-03-23T03:42:09;95901.22;;;9.57;62.45
49044;BME280;34860;48.066;14.124;2024-03-23T03:44:57;95894.00;;;9.59;62.45
49044;BME280;34860;48.066;14.124;2024-03-23T03:47:45;95901.44;;;9.62;62.64
49044;BME280;34860;48.066;14.124;2024-03-23T03:50:39;95886.31;;;9.63;62.58
49044;BME280;34860;48.066;14.124;2024-03-23T03:53:28;95892.44;;;9.58;63.11
49044;BME280;34860;48.066;14.124;2024-03-23T03:56:15;95888.63;;;9.43;63.09
49044;BME280;34860;48.066;14.124;2024-03-23T03:59:04;95886.34;;;9.29;63.44
49044;BME280;34860;48.066;14.124;2024-03-23T04:01:59;95883.25;;;9.14;63.73
49044;BME280;34860;48.066;14.124;2024-03-23T04:05:10;95878.72;;;9.07;64.17
49044;BME280;34860;48.066;14.124;2024-03-23T04:07:59;95879.72;;;9.13;63.77
49044;BME280;34860;48.066;14.124;2024-03-23T04:10:48;95877.94;;;9.19;63.44
49044;BME280;34860;48.066;14.124;2024-03-23T04:13:34;95881.47;;;9.20;63.21
49044;BME280;34860;48.066;14.124;2024-03-23T04:16:27;95864.63;;;9.14;63.21
49044;BME280;34860;48.066;14.124;2024-03-23T04:19:14;95864.88;;;9.07;62.93
49044;BME280;34860;48.066;14.124;2024-03-23T04:22:03;95860.78;;;8.99;63.04
49044;BME280;34860;48.066;14.124;2024-03-23T04:24:52;95849.59;;;8.89;63.06
49044;BME280;34860;48.066;14.124;2024-03-23T04:27:40;95844.75;;;8.81;63.05
49044;BME280;34860;48.066;14.124;2024-03-23T04:30:28;95850.38;;;8.77;63.14
49044;BME280;34860;48.066;14.124;2024-03-23T04:33:18;95847.63;;;8.77;63.15
49044;BME280;34860;48.066;14.124;2024-03-23T04:36:05;95843.63;;;8.78;62.93
49044;BME280;34860;48.066;14.124;2024-03-23T04:38:54;95846.28;;;8.69;63.13
49044;BME280;34860;48.066;14.124;2024-03-23T04:41:44;95844.09;;;8.64;63.64
49044;BME280;34860;48.066;14.124;2024-03-23T04:44:33;95848.75;;;8.67;63.63
49044;BME280;34860;48.066;14.124;2024-03-23T04:47:23;95847.84;;;8.70;63.49
49044;BME280;34860;48.066;14.124;2024-03-23T04:50:13;95846.53;;;8.75;63.50
49044;BME280;34860;48.066;14.124;2024-03-23T04:53:03;95839.44;;;8.73;63.27
49044;BME280;34860;48.066;14.124;2024-03-23T04:55:52;95847.06;;;8.69;63.53
49044;BME280;34860;48.066;14.124;2024-03-23T04:58:42;95848.44;;;8.65;63.73
49044;BME280;34860;48.066;14.124;2024-03-23T05:01:30;95836.22;;;8.62;63.64
49044;BME280;34860;48.066;14.124;2024-03-23T05:04:22;95833.78;;;8.64;63.74
49044;BME280;34860;48.066;14.124;2024-03-23T05:07:09;95827.03;;;8.65;63.67
49044;BME280;34860;48.066;14.124;2024-03-23T05:09:58;95822.50;;;8.71;63.45
49044;BME280;34860;48.066;14.124;2024-03-23T05:12:45;95816.50;;;8.73;63.45
49044;BME280;34860;48.066;14.124;2024-03-23T05:15:39;95810.50;;;8.75;63.35
49044;BME280;34860;48.066;14.124;2024-03-23T05:18:27;95808.84;;;8.77;63.24
49044;BME280;34860;48.066;14.124;2024-03-23T05:21:15;95814.28;;;8.81;63.08
49044;BME280;34860;48.066;14.124;2024-03-23T05:24:02;95805.97;;;8.81;62.91
49044;BME280;34860;48.066;14.124;2024-03-23T05:26:50;95812.16;;;8.85;62.97
49044;BME280;34860;48.066;14.124;2024-03-23T05:29:37;95817.56;;;8.88;62.83
49044;BME280;34860;48.066;14.124;2024-03-23T05:32:27;95824.22;;;8.91;62.77
49044;BME280;34860;48.066;14.124;2024-03-23T05:35:16;95812.59;;;8.83;63.04
49044;BME280;34860;48.066;14.124;2024-03-23T05:38:06;95806.28;;;8.83;63.05
49044;BME280;34860;48.066;14.124;2024-03-23T05:40:54;95815.25;;;8.87;63.08
49044;BME280;34860;48.066;14.124;2024-03-23T05:43:42;95812.72;;;8.80;62.95
49044;BME280;34860;48.066;14.124;2024-03-23T05:46:29;95807.63;;;8.78;63.42
49044;BME280;34860;48.066;14.124;2024-03-23T05:49:20;95810.38;;;8.78;63.44
49044;BME280;34860;48.066;14.124;2024-03-23T05:52:08;95801.50;;;8.83;63.46
49044;BME280;34860;48.066;14.124;2024-03-23T05:54:57;95803.03;;;8.97;63.21
49044;BME280;34860;48.066;14.124;2024-03-23T05:57:45;95802.88;;;9.14;62.91
49044;BME280;34860;48.066;14.124;2024-03-23T06:00:42;95795.47;;;9.33;62.78
49044;BME280;34860;48.066;14.124;2024-03-23T06:03:57;95793.03;;;9.57;62.39
49044;BME280;34860;48.066;14.124;2024-03-23T06:06:47;95786.06;;;9.74;62.05
49044;BME280;34860;48.066;14.124;2024-03-23T06:09:36;95784.94;;;9.94;62.15
49044;BME280;34860;48.066;14.124;2024-03-23T06:12:34;95788.47;;;10.16;61.97
49044;BME280;34860;48.066;14.124;2024-03-23T06:15:23;95789.66;;;10.38;61.81
49044;BME280;34860;48.066;14.124;2024-03-23T06:18:11;95786.78;;;10.60;61.63
49044;BME280;34860;48.066;14.124;2024-03-23T06:21:01;95780.66;;;10.74;61.28
49044;BME280;34860;48.066;14.124;2024-03-23T06:23:57;95771.56;;;10.92;61.33
49044;BME280;34860;48.066;14.124;2024-03-23T06:26:46;95779.63;;;11.18;61.16
49044;BME280;34860;48.066;14.124;2024-03-23T06:29:33;95780.22;;;11.40;61.01
49044;BME280;34860;48.066;14.124;2024-03-23T06:32:23;95771.06;;;11.68;60.75
49044;BME280;34860;48.066;14.124;2024-03-23T06:35:10;95763.31;;;11.90;60.49
49044;BME280;34860;48.066;14.124;2024-03-23T06:37:58;95757.13;;;12.05;60.42
49044;BME280;34860;48.066;14.124;2024-03-23T06:40:50;95757.03;;;12.23;60.19
49044;BME280;34860;48.066;14.124;2024-03-23T06:43:41;95753.72;;;12.43;60.20
49044;BME280;34860;48.066;14.124;2024-03-23T06:46:28;95755.75;;;12.67;59.82
49044;BME280;34860;48.066;14.124;2024-03-23T06:49:17;95749.09;;;12.88;59.64
49044;BME280;34860;48.066;14.124;2024-03-23T06:52:05;95740.31;;;13.05;59.49
49044;BME280;34860;48.066;14.124;2024-03-23T06:54:53;95736.91;;;13.25;59.32
49044;BME280;34860;48.066;14.124;2024-03-23T06:57:42;95726.66;;;13.46;59.29
49044;BME280;34860;48.066;14.124;2024-03-23T07:00:30;95731.13;;;13.68;59.08
49044;BME280;34860;48.066;14.124;2024-03-23T07:03:18;95724.09;;;13.87;59.06
49044;BME280;34860;48.066;14.124;2024-03-23T07:06:09;95718.41;;;13.96;58.92
49044;BME280;34860;48.066;14.124;2024-03-23T07:08:57;95710.41;;;14.04;58.78
49044;BME280;34860;48.066;14.124;2024-03-23T07:11:47;95707.13;;;14.06;58.35
49044;BME280;34860;48.066;14.124;2024-03-23T07:14:38;95704.25;;;14.00;58.34
49044;BME280;34860;48.066;14.124;2024-03-23T07:17:27;95699.72;;;14.03;58.10
49044;BME280;34860;48.066;14.124;2024-03-23T07:20:14;95694.84;;;14.18;58.19
49044;BME280;34860;48.066;14.124;2024-03-23T07:23:07;95701.94;;;14.49;57.98
49044;BME280;34860;48.066;14.124;2024-03-23T07:25:57;95691.56;;;14.91;57.58
49044;BME280;34860;48.066;14.124;2024-03-23T07:28:45;95699.91;;;15.32;57.08
49044;BME280;34860;48.066;14.124;2024-03-23T07:31:34;95678.38;;;15.70;56.68
49044;BME280;34860;48.066;14.124;2024-03-23T07:34:23;95686.28;;;15.97;56.73
49044;BME280;34860;48.066;14.124;2024-03-23T07:37:44;95679.38;;;16.30;56.66
49044;BME280;34860;48.066;14.124;2024-03-23T07:40:33;95679.03;;;16.55;56.82
49044;BME280;34860;48.066;14.124;2024-03-23T07:43:20;95683.97;;;16.77;57.23
49044;BME280;34860;48.066;14.124;2024-03-23T07:50:20;95658.63;;;17.03;57.20
49044;BME280;34860;48.066;14.124;2024-03-23T07:53:08;95667.88;;;17.32;56.72
49044;BME280;34860;48.066;14.124;2024-03-23T07:55:56;95675.56;;;17.37;56.57
49044;BME280;34860;48.066;14.124;2024-03-23T07:58:45;95664.25;;;17.20;57.09
49044;BME280;34860;48.066;14.124;2024-03-23T08:01:50;95664.41;;;16.88;57.71
49044;BME280;34860;48.066;14.124;2024-03-23T08:04:39;95653.09;;;16.71;58.28
49044;BME280;34860;48.066;14.124;2024-03-23T08:07:27;95652.59;;;16.73;58.12
49044;BME280;34860;48.066;14.124;2024-03-23T08:10:16;95652.47;;;16.93;57.76
49044;BME280;34860;48.066;14.124;2024-03-23T08:13:05;95655.31;;;17.10;57.33
49044;BME280;34860;48.066;14.124;2024-03-23T08:15:56;95646.34;;;17.00;57.28
49044;BME280;34860;48.066;14.124;2024-03-23T08:18:43;95635.81;;;16.84;57.73
49044;BME280;34860;48.066;14.124;2024-03-23T08:21:32;95627.31;;;16.67;58.08
49044;BME280;34860;48.066;14.124;2024-03-23T08:24:21;95618.16;;;16.72;57.87
49044;BME280;34860;48.066;14.124;2024-03-23T08:27:09;95617.72;;;16.85;57.39
49044;BME280;34860;48.066;14.124;2024-03-23T08:29:59;95608.09;;;17.09;56.64
49044;BME280;34860;48.066;14.124;2024-03-23T08:32:47;95608.16;;;17.37;56.03
49044;BME280;34860;48.066;14.124;2024-03-23T08:35:34;95592.84;;;17.66;55.31
49044;BME280;34860;48.066;14.124;2024-03-23T08:38:23;95595.41;;;17.81;54.72
49044;BME280;34860;48.066;14.124;2024-03-23T08:41:12;95584.19;;;17.92;54.54
49044;BME280;34860;48.066;14.124;2024-03-23T08:44:00;95573.19;;;18.00;54.27
49044;BME280;34860;48.066;14.124;2024-03-23T08:46:47;95570.63;;;18.08;54.07
49044;BME280;34860;48.066;14.124;2024-03-23T08:49:35;95569.56;;;18.17;53.79
49044;BME280;34860;48.066;14.124;2024-03-23T08:52:21;95556.53;;;18.19;53.67
49044;BME280;34860;48.066;14.124;2024-03-23T08:55:12;95558.50;;;18.30;53.38
49044;BME280;34860;48.066;14.124;2024-03-23T08:58:01;95549.28;;;18.41;52.91
49044;BME280;34860;48.066;14.124;2024-03-23T09:00:50;95544.63;;;18.49;52.65
49044;BME280;34860;48.066;14.124;2024-03-23T09:03:37;95542.34;;;18.47;52.44
49044;BME280;34860;48.066;14.124;2024-03-23T09:06:25;95542.63;;;18.44;52.54
49044;BME280;34860;48.066;14.124;2024-03-23T09:09:12;95540.56;;;18.50;52.43
49044;BME280;34860;48.066;14.124;2024-03-23T09:12:00;95530.78;;;18.62;52.10
49044;BME280;34860;48.066;14.124;2024-03-23T09:14:50;95537.38;;;18.70;51.91
49044;BME280;34860;48.066;14.124;2024-03-23T09:17:37;95534.78;;;18.78;51.81
49044;BME280;34860;48.066;14.124;2024-03-23T09:20:25;95532.19;;;18.92;51.56
49044;BME280;34860;48.066;14.124;2024-03-23T09:23:12;95533.84;;;19.12;51.21
49044;BME280;34860;48.066;14.124;2024-03-23T09:26:02;95544.78;;;19.21;50.96
49044;BME280;34860;48.066;14.124;2024-03-23T09:28:49;95543.50;;;19.22;51.14
49044;BME280;34860;48.066;14.124;2024-03-23T09:31:39;95537.34;;;19.23;50.63
49044;BME280;34860;48.066;14.124;2024-03-23T09:34:29;95546.22;;;19.39;50.24
49044;BME280;34860;48.066;14.124;2024-03-23T09:37:17;95542.09;;;19.40;50.14
49044;BME280;34860;48.066;14.124;2024-03-23T09:40:04;95538.72;;;19.47;49.83
49044;BME280;34860;48.066;14.124;2024-03-23T09:42:54;95531.41;;;19.63;49.42
49044;BME280;34860;48.066;14.124;2024-03-23T09:45:43;95540.16;;;19.59;49.42
49044;BME280;34860;48.066;14.124;2024-03-23T09:48:34;95542.00;;;19.51;49.31
49044;BME280;34860;48.066;14.124;2024-03-23T09:51:21;95544.13;;;19.45;49.35
49044;BME280;34860;48.066;14.124;2024-03-23T09:54:09;95551.97;;;19.52;49.20
49044;BME280;34860;48.066;14.124;2024-03-23T09:56:58;95557.22;;;19.67;49.10
49044;BME280;34860;48.066;14.124;2024-03-23T09:59:46;95554.38;;;19.78;48.52
49044;BME280;34860;48.066;14.124;2024-03-23T10:02:33;95555.84;;;19.85;48.26
49044;BME280;34860;48.066;14.124;2024-03-23T10:05:23;95556.88;;;19.82;48.00
49044;BME280;34860;48.066;14.124;2024-03-23T10:08:18;95553.63;;;19.72;47.83
49044;BME280;34860;48.066;14.124;2024-03-23T10:11:13;95568.31;;;19.29;48.50
49044;BME280;34860;48.066;14.124;2024-03-23T10:14:01;95578.28;;;18.77;49.30
49044;BME280;34860;48.066;14.124;2024-03-23T10:16:50;95591.31;;;18.05;50.21
49044;BME280;34860;48.066;14.124;2024-03-23T10:19:36;95631.38;;;17.37;50.69
49044;BME280;34860;48.066;14.124;2024-03-23T10:22:26;95624.88;;;16.86;51.54
49044;BME280;34860;48.066;14.124;2024-03-23T10:25:13;95625.91;;;16.40;51.74
49044;BME280;34860;48.066;14.124;2024-03-23T10:28:01;95649.56;;;15.95;52.17
49044;BME280;34860;48.066;14.124;2024-03-23T10:30:48;95668.94;;;15.67;52.33
49044;BME280;34860;48.066;14.124;2024-03-23T10:33:36;95694.19;;;15.20;52.89
49044;BME280;34860;48.066;14.124;2024-03-23T10:36:23;95684.41;;;14.89;53.35
49044;BME280;34860;48.066;14.124;2024-03-23T10:39:14;95684.50;;;14.95;52.88
49044;BME280;34860;48.066;14.124;2024-03-23T10:42:04;95707.72;;;14.81;52.88
49044;BME280;34860;48.066;14.124;2024-03-23T10:44:52;95716.09;;;14.45;53.18
49044;BME280;34860;48.066;14.124;2024-03-23T10:47:40;95725.63;;;14.03;53.75
49044;BME280;34860;48.066;14.124;2024-03-23T10:50:29;95722.66;;;13.77;54.11
49044;BME280;34860;48.066;14.124;2024-03-23T10:53:17;95737.06;;;13.46;54.16
49044;BME280;34860;48.066;14.124;2024-03-23T10:56:07;95747.09;;;13.13;54.53
49044;BME280;34860;48.066;14.124;2024-03-23T10:58:54;95748.53;;;12.84;54.90
49044;BME280;34860;48.066;14.124;2024-03-23T11:01:54;95766.16;;;12.57;55.06
49044;BME280;34860;48.066;14.124;2024-03-23T11:04:42;95777.59;;;12.35;55.06
49044;BME280;34860;48.066;14.124;2024-03-23T11:07:30;95774.56;;;12.14;55.23
49044;BME280;34860;48.066;14.124;2024-03-23T11:10:25;95774.91;;;11.98;55.38
49044;BME280;34860;48.066;14.124;2024-03-23T11:13:23;95785.13;;;11.82;55.40
49044;BME280;34860;48.066;14.124;2024-03-23T11:16:15;95803.25;;;11.69;55.54
49044;BME280;34860;48.066;14.124;2024-03-23T11:19:35;95797.97;;;11.61;55.71
49044;BME280;34860;48.066;14.124;2024-03-23T11:22:42;95818.88;;;11.48;55.53
49044;BME280;34860;48.066;14.124;2024-03-23T11:25:31;95827.06;;;11.33;55.54
49044;BME280;34860;48.066;14.124;2024-03-23T11:28:23;95852.06;;;11.14;55.79
49044;BME280;34860;48.066;14.124;2024-03-23T11:31:10;95839.22;;;10.98;55.88
49044;BME280;34860;48.066;14.124;2024-03-23T11:34:03;95861.41;;;10.80;56.03
49044;BME280;34860;48.066;14.124;2024-03-23T11:36:50;95862.56;;;10.60;56.28
49044;BME280;34860;48.066;14.124;2024-03-23T11:39:50;95862.47;;;10.42;56.39
49044;BME280;34860;48.066;14.124;2024-03-23T11:42:36;95868.56;;;10.27;56.46
49044;BME280;34860;48.066;14.124;2024-03-23T11:45:26;95872.19;;;10.15;56.74
49044;BME280;34860;48.066;14.124;2024-03-23T11:48:14;95876.59;;;10.03;56.79
49044;BME280;34860;48.066;14.124;2024-03-23T11:51:04;95869.44;;;9.93;56.69
49044;BME280;34860;48.066;14.124;2024-03-23T11:53:52;95867.56;;;9.90;56.78
49044;BME280;34860;48.066;14.124;2024-03-23T11:56:40;95856.25;;;9.84;56.70
49044;BME280;34860;48.066;14.124;2024-03-23T11:59:31;95863.59;;;9.78;56.84
49044;BME280;34860;48.066;14.124;2024-03-23T12:02:21;95861.88;;;9.71;56.94
49044;BME280;34860;48.066;14.124;2024-03-23T12:05:14;95856.91;;;9.66;57.02
49044;BME280;34860;48.066;14.124;2024-03-23T12:08:19;95862.38;;;9.57;57.26
49044;BME280;34860;48.066;14.124;2024-03-23T12:11:07;95861.44;;;9.38;57.56
49044;BME280;34860;48.066;14.124;2024-03-23T12:13:59;95874.13;;;9.26;57.90
49044;BME280;34860;48.066;14.124;2024-03-23T12:16:46;95863.41;;;9.15;58.05
49044;BME280;34860;48.066;14.124;2024-03-23T12:19:36;95866.31;;;9.12;58.17
49044;BME280;34860;48.066;14.124;2024-03-23T12:22:24;95860.97;;;9.04;58.31
49044;BME280;34860;48.066;14.124;2024-03-23T12:25:15;95869.28;;;9.04;58.39
49044;BME280;34860;48.066;14.124;2024-03-23T12:28:02;95879.41;;;9.11;58.42
49044;BME280;34860;48.066;14.124;2024-03-23T12:30:52;95876.28;;;9.09;58.59
49044;BME280;34860;48.066;14.124;2024-03-23T12:33:40;95885.28;;;9.00;58.71
49044;BME280;34860;48.066;14.124;2024-03-23T12:36:30;95907.47;;;8.87;59.12
49044;BME280;34860;48.066;14.124;2024-03-23T12:39:18;95923.31;;;8.74;59.31
49044;BME280;34860;48.066;14.124;2024-03-23T12:42:05;95926.63;;;8.56;59.78
49044;BME280;34860;48.066;14.124;2024-03-23T12:44:53;95949.59;;;8.40;60.06
49044;BME280;34860;48.066;14.124;2024-03-23T12:47:41;95951.78;;;8.19;60.51
49044;BME280;34860;48.066;14.124;2024-03-23T12:50:29;95940.00;;;8.03;60.86
49044;BME280;34860;48.066;14.124;2024-03-23T12:53:19;95957.00;;;7.88;61.17
49044;BME280;34860;48.066;14.124;2024-03-23T12:56:07;95944.44;;;7.71;61.63
49044;BME280;34860;48.066;14.124;2024-03-23T12:58:55;95952.41;;;7.52;61.98
49044;BME280;34860;48.066;14.124;2024-03-23T13:01:43;95949.56;;;7.39;62.33
49044;BME280;34860;48.066;14.124;2024-03-23T13:04:31;95958.38;;;7.34;62.47
49044;BME280;34860;48.066;14.124;2024-03-23T13:07:18;95954.59;;;7.28;62.46
49044;BME280;34860;48.066;14.124;2024-03-23T13:10:09;95970.28;;;7.15;62.75
49044;BME280;34860;48.066;14.124;2024-03-23T13:12:56;95963.81;;;7.05;63.11
49044;BME280;34860;48.066;14.124;2024-03-23T13:15:49;95971.66;;;7.06;63.07
49044;BME280;34860;48.066;14.124;2024-03-23T13:18:36;95999.91;;;7.14;62.72
49044;BME280;34860;48.066;14.124;2024-03-23T13:21:24;96008.38;;;7.23;62.45
49044;BME280;34860;48.066;14.124;2024-03-23T13:24:13;96013.50;;;7.25;62.36
49044;BME280;34860;48.066;14.124;2024-03-23T13:27:03;96009.34;;;7.17;62.61
49044;BME280;34860;48.066;14.124;2024-03-23T13:29:54;96024.53;;;7.08;62.76
49044;BME280;34860;48.066;14.124;2024-03-23T13:32:42;96027.00;;;6.86;63.28
49044;BME280;34860;48.066;14.124;2024-03-23T13:35:28;96042.47;;;6.64;63.96
49044;BME280;34860;48.066;14.124;2024-03-23T13:38:17;96040.44;;;6.48;64.39
49044;BME280;34860;48.066;14.124;2024-03-23T13:41:04;96036.03;;;6.30;64.52
49044;BME280;34860;48.066;14.124;2024-03-23T13:43:54;96034.53;;;6.26;64.76
49044;BME280;34860;48.066;14.124;2024-03-23T13:46:43;96025.00;;;6.30;64.56
49044;BME280;34860;48.066;14.124;2024-03-23T13:49:31;96016.97;;;6.36;64.27
49044;BME280;34860;48.066;14.124;2024-03-23T13:52:19;96018.81;;;6.43;64.11
49044;BME280;34860;48.066;14.124;2024-03-23T13:55:09;96013.16;;;6.50;64.13
49044;BME280;34860;48.066;14.124;2024-03-23T13:57:59;95988.59;;;6.55;63.93
49044;BME280;34860;48.066;14.124;2024-03-23T14:00:47;95979.81;;;6.61;63.91
49044;BME280;34860;48.066;14.124;2024-03-23T14:03:35;95978.09;;;6.67;63.73
49044;BME280;34860;48.066;14.124;2024-03-23T14:06:22;95974.03;;;6.71;63.88
49044;BME280;34860;48.066;14.124;2024-03-23T14:09:10;95969.56;;;6.78;63.86
49044;BME280;34860;48.066;14.124;2024-03-23T14:11:57;95961.66;;;6.80;63.84
49044;BME280;34860;48.066;14.124;2024-03-23T14:14:46;95950.50;;;6.83;63.82
49044;BME280;34860;48.066;14.124;2024-03-23T14:17:35;95956.38;;;6.85;64.08
49044;BME280;34860;48.066;14.124;2024-03-23T14:20:23;95953.97;;;6.87;63.94
49044;BME280;34860;48.066;14.124;2024-03-23T14:23:10;95950.75;;;6.89;64.06
49044;BME280;34860;48.066;14.124;2024-03-23T14:25:58;95969.31;;;6.88;64.15
49044;BME280;34860;48.066;14.124;2024-03-23T14:28:44;95963.81;;;6.88;64.12
49044;BME280;34860;48.066;14.124;2024-03-23T14:31:32;95974.00;;;6.91;64.21
49044;BME280;34860;48.066;14.124;2024-03-23T14:34:21;95950.59;;;6.96;64.30
49044;BME280;34860;48.066;14.124;2024-03-23T14:37:09;95950.94;;;6.98;64.39
49044;BME280;34860;48.066;14.124;2024-03-23T14:39:56;95954.06;;;7.00;64.44
49044;BME280;34860;48.066;14.124;2024-03-23T14:42:44;95963.19;;;6.97;64.53
49044;BME280;34860;48.066;14.124;2024-03-23T14:45:31;95969.59;;;6.94;64.60
49044;BME280;34860;48.066;14.124;2024-03-23T14:48:19;95974.25;;;6.97;64.68
49044;BME280;34860;48.066;14.124;2024-03-23T14:51:08;95977.00;;;6.97;64.74
49044;BME280;34860;48.066;14.124;2024-03-23T14:53:56;95995.16;;;6.98;64.90
49044;BME280;34860;48.066;14.124;2024-03-23T14:56:44;95999.19;;;6.94;64.90
49044;BME280;34860;48.066;14.124;2024-03-23T14:59:33;95992.13;;;6.93;64.92
49044;BME280;34860;48.066;14.124;2024-03-23T15:02:20;95998.09;;;6.91;64.99
49044;BME280;34860;48.066;14.124;2024-03-23T15:05:08;95979.94;;;6.90;65.08
49044;BME280;34860;48.066;14.124;2024-03-23T15:07:57;95974.44;;;6.90;64.94
49044;BME280;34860;48.066;14.124;2024-03-23T15:10:45;95969.66;;;6.90;65.09
49044;BME280;34860;48.066;14.124;2024-03-23T15:13:32;95987.47;;;6.89;64.92
49044;BME280;34860;48.066;14.124;2024-03-23T15:16:20;95984.63;;;6.93;65.01
49044;BME280;34860;48.066;14.124;2024-03-23T15:19:07;95995.31;;;6.91;64.92
49044;BME280;34860;48.066;14.124;2024-03-23T15:21:54;95997.72;;;6.89;65.00
49044;BME280;34860;48.066;14.124;2024-03-23T15:24:43;96004.09;;;6.86;65.31
49044;BME280;34860;48.066;14.124;2024-03-23T15:27:31;96006.94;;;6.82;65.27
49044;BME280;34860;48.066;14.124;2024-03-23T15:30:17;96000.31;;;6.80;65.18
49044;BME280;34860;48.066;14.124;2024-03-23T15:33:05;95991.31;;;6.76;65.33
49044;BME280;34860;48.066;14.124;2024-03-23T15:35:52;95991.75;;;6.74;65.35
49044;BME280;34860;48.066;14.124;2024-03-23T15:38:40;95997.34;;;6.70;65.36
49044;BME280;34860;48.066;14.124;2024-03-23T15:41:28;95991.13;;;6.66;65.25
49044;BME280;34860;48.066;14.124;2024-03-23T15:44:17;95997.41;;;6.67;65.31
49044;BME280;34860;48.066;14.124;2024-03-23T15:47:05;96000.16;;;6.67;65.39
49044;BME280;34860;48.066;14.124;2024-03-23T15:49:52;95993.53;;;6.64;65.32
49044;BME280;34860;48.066;14.124;2024-03-23T15:52:41;95994.31;;;6.65;65.24
49044;BME280;34860;48.066;14.124;2024-03-23T15:55:28;95986.88;;;6.62;65.27
49044;BME280;34860;48.066;14.124;2024-03-23T15:58:18;95978.25;;;6.60;65.37
49044;BME280;34860;48.066;14.124;2024-03-23T16:01:06;95980.16;;;6.63;64.99